Izmit, Turkey
Current Conditions -  °F | °C
As of 1:50 PM on Friday 28 Nov 2014 (Local Time) from LTBQ Reporting Station
Scattered Clouds Scattered Clouds  
Wind Chill: 50°   Ceiling: Unl
Heat Index: 50°   Visibility: 5mi
Dew Point: 43°   Wind: 7mph
Humidity: 76%   Direction: 120°ESE
Pressure: 30.27"   Gusts: NA
Location:  40.77°N, 29.93°E
Report Text: LTBQ 281050Z 12006KT 080V150 8000 SCT035 SCT080 10/06 Q1025 NOSIG
Loading
Personal Weather Stations






























Interactive Weather Map New forecast layout! Learn more

10-Day Weather Forecast

Advertisements
Track Severe Weather on mobile